Time;durP1;ratioP1;P1;durP2;ratioP2;P2;SDS_P1;SDS_P2;PMS_P1;PMS_P2;Temp;Humidity;BMP_temperature;BMP_pressure;BME280_temperature;BME280_humidity;BME280_pressure;Samples;Min_cycle;Max_cycle;Signal;HPM_P1;HPM_P2
2021/05/15 00:00:56;;;;;;;5.35;1.15;;;11.60;86.00;;;;;;5032577;28;20026;-71
2021/05/15 00:03:22;;;;;;;0.85;0.50;;;11.60;85.80;;;;;;5014819;28;20025;-71
2021/05/15 00:05:48;;;;;;;1.45;0.70;;;11.70;85.60;;;;;;5014302;28;20029;-71
2021/05/15 00:08:14;;;;;;;1.90;0.68;;;11.70;85.40;;;;;;5032501;28;20029;-71
2021/05/15 00:10:40;;;;;;;1.00;0.77;;;11.70;85.40;;;;;;5030635;28;20037;-72
2021/05/15 00:13:06;;;;;;;0.70;0.52;;;11.70;85.00;;;;;;5031088;28;20116;-71
2021/05/15 00:15:32;;;;;;;0.77;0.60;;;11.70;85.10;;;;;;5013766;28;20140;-71
2021/05/15 00:17:57;;;;;;;0.85;0.60;;;11.80;85.20;;;;;;5032416;28;20025;-71
2021/05/15 00:20:23;;;;;;;1.40;0.70;;;11.70;85.10;;;;;;5014668;28;20028;-71
2021/05/15 00:22:49;;;;;;;1.35;0.60;;;11.70;85.20;;;;;;5031746;28;20446;-71
2021/05/15 00:25:16;;;;;;;0.80;0.50;;;11.70;85.00;;;;;;5014652;28;20360;-71
2021/05/15 00:27:42;;;;;;;1.05;0.60;;;11.70;85.00;;;;;;5031691;28;20045;-71
2021/05/15 00:30:10;;;;;;;0.95;0.50;;;11.70;85.10;;;;;;5030952;28;20021;-71
2021/05/15 00:32:36;;;;;;;1.38;0.60;;;11.70;85.00;;;;;;5034340;28;20076;-71
2021/05/15 00:35:02;;;;;;;0.80;0.60;;;11.70;85.20;;;;;;5036250;28;20433;-71
2021/05/15 00:37:28;;;;;;;1.52;0.60;;;11.70;85.10;;;;;;5018404;28;20025;-70
2021/05/15 00:39:54;;;;;;;2.15;0.63;;;11.80;84.90;;;;;;5035540;28;20446;-71
2021/05/15 00:42:20;;;;;;;1.73;0.63;;;11.70;84.60;;;;;;5018061;28;20467;-71
2021/05/15 00:44:45;;;;;;;1.73;0.77;;;11.70;84.80;;;;;;5017500;28;20031;-70
2021/05/15 00:47:19;;;;;;;1.13;0.63;;;11.80;84.90;;;;;;5034209;28;20056;-71
2021/05/15 00:49:46;;;;;;;1.58;0.50;;;11.80;84.60;;;;;;5017724;28;20025;-71
2021/05/15 00:52:12;;;;;;;0.70;0.50;;;11.80;84.40;;;;;;5035856;28;20053;-71
2021/05/15 00:54:39;;;;;;;0.93;0.50;;;11.70;84.10;;;;;;5017547;28;20033;-71
2021/05/15 00:57:07;;;;;;;1.58;0.50;;;11.70;83.70;;;;;;5018224;28;20022;-71
2021/05/15 00:59:34;;;;;;;1.20;0.40;;;11.70;83.80;;;;;;5017713;28;20466;-74
2021/05/15 01:01:59;;;;;;;1.23;0.30;;;11.70;83.50;;;;;;5018054;28;20053;-70
2021/05/15 01:04:25;;;;;;;2.50;0.40;;;11.80;83.30;;;;;;5017956;28;20087;-70
2021/05/15 01:06:52;;;;;;;1.35;0.30;;;11.80;82.80;;;;;;5033688;28;20033;-70
2021/05/15 01:09:18;;;;;;;0.75;0.38;;;11.80;82.80;;;;;;5018071;28;20168;-70
2021/05/15 01:11:44;;;;;;;1.73;0.55;;;11.80;83.00;;;;;;5034979;28;20037;-70
2021/05/15 01:14:10;;;;;;;1.48;0.20;;;11.80;82.60;;;;;;5035520;28;20026;-70
2021/05/15 01:16:36;;;;;;;1.63;0.45;;;11.80;82.10;;;;;;5033546;28;20390;-70
2021/05/15 01:19:02;;;;;;;0.70;0.40;;;11.80;82.10;;;;;;5035123;28;20409;-70
2021/05/15 01:21:28;;;;;;;1.60;0.40;;;11.70;82.00;;;;;;5017676;28;20067;-70
2021/05/15 01:23:54;;;;;;;0.68;0.40;;;11.70;82.00;;;;;;5016903;28;20645;-70
2021/05/15 01:26:25;;;;;;;0.93;0.40;;;11.70;81.80;;;;;;5017535;28;20106;-70
2021/05/15 01:28:53;;;;;;;1.08;0.25;;;11.70;81.90;;;;;;5034731;28;20079;-70
2021/05/15 01:31:20;;;;;;;0.32;0.20;;;11.80;81.50;;;;;;5017473;28;20029;-70
2021/05/15 01:33:46;;;;;;;0.43;0.30;;;11.70;81.50;;;;;;5034567;28;20026;-70
2021/05/15 01:36:13;;;;;;;0.82;0.30;;;11.80;81.40;;;;;;5017372;28;20034;-70
2021/05/15 01:38:39;;;;;;;0.45;0.25;;;11.80;81.10;;;;;;5034474;28;20034;-71
2021/05/15 01:41:10;;;;;;;0.25;0.20;;;11.70;80.80;;;;;;5017226;28;20041;-70
2021/05/15 01:43:36;;;;;;;0.47;0.35;;;11.70;80.90;;;;;;5034302;28;20026;-74
2021/05/15 01:46:03;;;;;;;0.47;0.35;;;11.70;80.40;;;;;;5033548;28;20120;-70
2021/05/15 01:48:29;;;;;;;1.17;0.25;;;11.70;80.80;;;;;;5017235;28;20033;-70
2021/05/15 01:50:59;;;;;;;0.28;0.20;;;11.70;80.70;;;;;;5033954;28;20079;-70
2021/05/15 01:53:25;;;;;;;0.45;0.20;;;11.70;80.70;;;;;;5034788;28;20025;-70
2021/05/15 01:55:52;;;;;;;0.20;0.20;;;11.70;81.30;;;;;;5034065;28;20040;-70
2021/05/15 01:58:18;;;;;;;0.75;0.30;;;11.70;80.40;;;;;;5034807;28;20025;-70
2021/05/15 02:00:44;;;;;;;0.52;0.40;;;11.80;80.50;;;;;;5034075;28;20082;-70
2021/05/15 02:03:09;;;;;;;1.52;0.30;;;11.80;80.50;;;;;;5034677;28;20052;-70
2021/05/15 02:05:35;;;;;;;0.88;0.38;;;11.80;81.10;;;;;;5034557;28;20029;-70
2021/05/15 02:08:01;;;;;;;1.20;0.38;;;11.80;80.40;;;;;;5033741;28;20080;-70
2021/05/15 02:10:26;;;;;;;1.33;0.40;;;11.70;80.40;;;;;;5033394;28;20569;-70
2021/05/15 02:12:52;;;;;;;0.57;0.35;;;11.80;80.50;;;;;;5016046;28;20061;-70
2021/05/15 02:15:18;;;;;;;0.65;0.20;;;11.70;80.40;;;;;;5034403;28;20474;-70
2021/05/15 02:17:43;;;;;;;1.58;0.40;;;11.70;80.50;;;;;;5016022;28;20486;-70
2021/05/15 02:20:09;;;;;;;1.20;0.20;;;11.70;80.50;;;;;;5034389;28;20025;-70
2021/05/15 02:22:35;;;;;;;1.08;0.40;;;11.70;80.50;;;;;;5016522;28;20036;-70
2021/05/15 02:25:00;;;;;;;0.85;0.40;;;11.70;80.50;;;;;;5015795;28;20053;-70
2021/05/15 02:27:26;;;;;;;0.82;0.30;;;11.70;80.50;;;;;;5034230;28;20052;-70
2021/05/15 02:29:52;;;;;;;0.40;0.20;;;11.70;80.50;;;;;;5015469;28;20116;-70
2021/05/15 02:32:17;;;;;;;1.65;0.30;;;11.70;80.50;;;;;;5034045;28;20489;-70
2021/05/15 02:34:43;;;;;;;0.20;0.20;;;11.70;80.50;;;;;;5033325;28;20033;-70
2021/05/15 02:37:08;;;;;;;1.10;0.20;;;11.70;80.70;;;;;;5016261;28;20026;-70
2021/05/15 02:39:34;;;;;;;1.20;0.40;;;11.70;80.70;;;;;;5033896;28;20470;-71
2021/05/15 02:42:00;;;;;;;1.17;0.35;;;11.70;80.70;;;;;;5015493;28;20463;-70
2021/05/15 02:44:26;;;;;;;1.27;0.32;;;11.80;80.70;;;;;;5032715;28;20119;-70
2021/05/15 02:46:51;;;;;;;1.27;0.82;;;11.80;80.50;;;;;;5015302;28;20225;-70
2021/05/15 02:49:17;;;;;;;1.50;0.60;;;11.80;80.60;;;;;;5033971;28;20496;-70
2021/05/15 02:51:43;;;;;;;1.27;0.20;;;11.80;80.60;;;;;;5033348;28;20025;-70
2021/05/15 02:54:08;;;;;;;0.28;0.28;;;11.80;80.50;;;;;;5031509;28;20077;-70
2021/05/15 02:56:35;;;;;;;0.80;0.30;;;11.80;80.50;;;;;;5015931;28;20037;-70
2021/05/15 02:59:01;;;;;;;0.60;0.40;;;11.80;80.60;;;;;;5015219;28;20080;-70
2021/05/15 03:01:26;;;;;;;0.50;0.30;;;11.80;80.20;;;;;;5033540;28;20021;-70
2021/05/15 03:03:52;;;;;;;1.35;0.40;;;11.80;80.30;;;;;;5032642;28;20112;-70
2021/05/15 03:06:18;;;;;;;1.40;0.50;;;11.70;80.30;;;;;;5015788;28;20039;-70
2021/05/15 03:08:44;;;;;;;1.65;0.40;;;11.70;80.30;;;;;;5031537;28;20116;-70
2021/05/15 03:11:11;;;;;;;0.30;0.30;;;11.80;80.50;;;;;;5033311;28;20025;-71
2021/05/15 03:13:36;;;;;;;0.60;0.38;;;11.70;80.50;;;;;;5033314;28;20052;-70
2021/05/15 03:16:02;;;;;;;1.45;0.32;;;11.80;80.40;;;;;;5032347;28;20041;-70
2021/05/15 03:18:28;;;;;;;1.40;0.30;;;11.80;80.40;;;;;;5015498;28;20037;-70
2021/05/15 03:20:55;;;;;;;0.90;0.50;;;11.80;80.50;;;;;;5014588;28;20026;-70
2021/05/15 03:23:21;;;;;;;0.40;0.20;;;11.80;80.40;;;;;;5033110;28;20021;-70
2021/05/15 03:25:46;;;;;;;1.42;0.40;;;11.80;80.50;;;;;;5014835;28;20389;-70
2021/05/15 03:28:12;;;;;;;2.40;0.30;;;11.80;80.30;;;;;;5031918;28;20036;-70
2021/05/15 03:30:38;;;;;;;1.10;0.30;;;11.80;80.50;;;;;;5015405;28;20459;-70
2021/05/15 03:33:03;;;;;;;1.27;0.30;;;11.80;80.60;;;;;;5032378;28;20025;-70
2021/05/15 03:35:31;;;;;;;0.55;0.30;;;11.80;80.60;;;;;;5032641;28;20044;-70
2021/05/15 03:37:56;;;;;;;0.82;0.40;;;11.80;80.50;;;;;;5014544;28;20025;-70
2021/05/15 03:40:22;;;;;;;0.60;0.40;;;11.80;80.30;;;;;;5015133;28;20494;-70
2021/05/15 03:42:48;;;;;;;5.00;0.40;;;11.80;80.30;;;;;;5014516;28;20063;-70
2021/05/15 03:45:14;;;;;;;1.48;0.40;;;11.80;80.40;;;;;;5014972;28;20064;-70
2021/05/15 03:47:41;;;;;;;0.68;0.30;;;11.80;80.30;;;;;;5032874;28;20052;-70
2021/05/15 03:50:07;;;;;;;0.52;0.30;;;11.80;80.30;;;;;;5032346;28;20037;-70
2021/05/15 03:52:33;;;;;;;0.20;0.20;;;11.80;80.30;;;;;;5032971;28;20123;-70
2021/05/15 03:55:00;;;;;;;0.68;0.30;;;11.80;80.30;;;;;;5031968;28;20474;-70
2021/05/15 03:57:26;;;;;;;0.75;0.25;;;11.80;80.30;;;;;;5014966;28;20052;-70
2021/05/15 03:59:51;;;;;;;0.50;0.30;;;11.80;80.20;;;;;;5032066;28;20447;-70
2021/05/15 04:02:22;;;;;;;0.82;0.28;;;11.90;80.20;;;;;;5014758;28;20079;-70
2021/05/15 04:04:48;;;;;;;0.40;0.30;;;11.90;80.20;;;;;;5030716;28;20032;-70
2021/05/15 04:07:13;;;;;;;0.63;0.38;;;11.90;80.00;;;;;;5032378;28;20022;-70
2021/05/15 04:09:39;;;;;;;1.20;0.30;;;11.80;80.10;;;;;;5031138;28;20021;-70
2021/05/15 04:12:05;;;;;;;0.47;0.43;;;11.90;80.10;;;;;;5014176;28;20030;-70
2021/05/15 04:14:40;;;;;;;0.50;0.28;;;11.90;80.10;;;;;;5032443;28;20025;-70
2021/05/15 04:19:32;;;;;;;0.52;0.30;;;11.90;80.10;;;;;;5032369;28;20032;-70
2021/05/15 04:21:58;;;;;;;0.88;0.40;;;11.90;79.90;;;;;;5014023;28;20028;-70
2021/05/15 04:24:25;;;;;;;0.20;0.20;;;11.90;79.90;;;;;;5014627;28;20409;-70
2021/05/15 04:26:58;;;;;;;1.02;0.30;;;11.90;79.80;;;;;;5031776;28;20029;-70
2021/05/15 04:29:25;;;;;;;0.32;0.20;;;11.90;80.00;;;;;;5014733;28;20079;-70
2021/05/15 04:31:54;;;;;;;1.00;0.38;;;11.80;79.90;;;;;;5031688;28;20033;-70
2021/05/15 04:34:20;;;;;;;0.40;0.20;;;11.80;79.80;;;;;;5032271;28;20510;-70
2021/05/15 04:36:46;;;;;;;0.30;0.20;;;11.90;79.90;;;;;;5031429;28;20056;-74
2021/05/15 04:39:12;;;;;;;0.50;0.30;;;11.90;79.80;;;;;;5014189;28;20645;-70
2021/05/15 04:41:38;;;;;;;1.50;0.50;;;11.90;79.80;;;;;;5032230;28;20029;-70
2021/05/15 04:44:04;;;;;;;2.38;0.43;;;12.00;79.70;;;;;;5030374;28;20025;-70
2021/05/15 04:46:29;;;;;;;2.50;0.40;;;12.00;79.50;;;;;;5032133;28;20568;-70
2021/05/15 04:48:55;;;;;;;0.90;0.30;;;12.00;79.50;;;;;;5013744;28;20040;-70
2021/05/15 04:51:21;;;;;;;0.35;0.30;;;12.00;79.20;;;;;;5032250;28;20026;-70
2021/05/15 04:53:47;;;;;;;0.63;0.20;;;12.10;79.60;;;;;;5013952;28;20025;-74
2021/05/15 04:56:14;;;;;;;0.63;0.30;;;12.00;79.40;;;;;;5014291;28;20041;-70
2021/05/15 04:58:41;;;;;;;0.55;0.20;;;12.00;79.50;;;;;;5014345;28;20037;-70
2021/05/15 05:01:06;;;;;;;0.30;0.30;;;12.10;79.50;;;;;;5031425;28;20030;-70
2021/05/15 05:03:32;;;;;;;1.33;0.30;;;12.00;79.80;;;;;;5014487;28;20036;-70
2021/05/15 05:05:58;;;;;;;0.75;0.30;;;12.00;79.90;;;;;;5013669;28;20454;-70
2021/05/15 05:08:26;;;;;;;0.30;0.30;;;12.00;79.80;;;;;;5014400;28;20022;-70
2021/05/15 05:10:55;;;;;;;1.65;0.40;;;12.00;79.80;;;;;;5031424;28;20029;-70
2021/05/15 05:13:21;;;;;;;1.65;0.38;;;12.10;79.70;;;;;;5014235;28;20022;-70
2021/05/15 05:15:47;;;;;;;1.00;0.25;;;12.10;79.60;;;;;;5031626;28;20381;-70
2021/05/15 05:18:13;;;;;;;0.45;0.25;;;12.10;79.70;;;;;;5015416;28;20129;-70
2021/05/15 05:20:39;;;;;;;1.40;0.30;;;12.10;79.80;;;;;;5017664;28;20032;-70
2021/05/15 05:23:05;;;;;;;0.77;0.30;;;12.20;79.90;;;;;;5016993;28;20120;-70
2021/05/15 05:25:31;;;;;;;2.45;0.22;;;12.20;79.70;;;;;;5017296;28;20116;-70
2021/05/15 05:27:57;;;;;;;0.50;0.30;;;12.30;79.30;;;;;;5016884;28;20026;-71
2021/05/15 05:30:23;;;;;;;0.65;0.30;;;12.20;79.40;;;;;;5017468;28;20029;-70
2021/05/15 05:32:50;;;;;;;0.40;0.20;;;12.30;79.30;;;;;;5017478;28;20022;-71
2021/05/15 05:35:16;;;;;;;3.15;0.30;;;12.30;79.20;;;;;;5035081;28;20091;-70
2021/05/15 05:37:43;;;;;;;1.23;0.55;;;12.30;79.00;;;;;;5017406;28;20021;-70
2021/05/15 05:40:10;;;;;;;0.80;0.20;;;12.30;79.00;;;;;;5034444;28;20466;-70
2021/05/15 05:42:37;;;;;;;1.60;0.30;;;12.30;78.90;;;;;;5017395;28;20462;-70
2021/05/15 05:45:08;;;;;;;0.63;0.22;;;12.20;79.60;;;;;;5016534;28;20064;-70
2021/05/15 05:47:34;;;;;;;0.50;0.30;;;12.20;79.70;;;;;;5013658;28;20100;-70
2021/05/15 05:49:59;;;;;;;0.80;0.30;;;12.10;79.70;;;;;;5013269;28;20029;-70
2021/05/15 05:52:25;;;;;;;0.80;0.40;;;12.10;80.10;;;;;;5013678;28;20112;-70
2021/05/15 05:54:51;;;;;;;0.80;0.40;;;12.20;79.80;;;;;;5013228;28;20037;-74
2021/05/15 05:57:16;;;;;;;0.95;0.40;;;12.20;79.70;;;;;;5013723;28;20033;-70
2021/05/15 05:59:42;;;;;;;0.60;0.30;;;12.20;79.90;;;;;;5013555;28;20057;-70
2021/05/15 06:02:09;;;;;;;2.67;0.50;;;12.30;79.50;;;;;;5013022;28;20112;-70
2021/05/15 06:04:34;;;;;;;1.42;0.40;;;12.20;80.00;;;;;;5014990;28;20021;-70
2021/05/15 06:07:01;;;;;;;2.58;0.50;;;12.20;80.50;;;;;;5029411;28;20033;-71
2021/05/15 06:09:26;;;;;;;2.40;0.38;;;12.20;80.80;;;;;;5013752;28;20029;-70
2021/05/15 06:11:52;;;;;;;1.50;0.55;;;12.20;80.80;;;;;;5029267;28;20120;-73
2021/05/15 06:14:17;;;;;;;12.35;6.20;;;12.10;81.00;;;;;;5013465;28;20116;-70
2021/05/15 06:16:43;;;;;;;15.65;7.53;;;12.20;81.40;;;;;;5014705;28;20471;-70
2021/05/15 06:19:08;;;;;;;5.90;2.88;;;12.20;81.20;;;;;;5013745;28;20037;-71
2021/05/15 06:21:34;;;;;;;2.05;0.80;;;12.30;81.20;;;;;;5014560;28;20026;-70
2021/05/15 06:24:00;;;;;;;11.55;6.80;;;12.20;81.20;;;;;;5012660;28;20032;-70
2021/05/15 06:26:26;;;;;;;9.13;3.80;;;12.30;81.50;;;;;;5014131;28;20030;-70
2021/05/15 06:28:51;;;;;;;16.95;7.97;;;12.40;80.90;;;;;;5013109;28;20048;-70
2021/05/15 06:31:17;;;;;;;6.70;3.42;;;12.50;80.50;;;;;;5013738;28;20378;-70
2021/05/15 06:33:43;;;;;;;1.85;1.45;;;12.50;79.60;;;;;;5014644;28;20083;-69
2021/05/15 06:36:08;;;;;;;3.75;0.70;;;12.60;79.70;;;;;;5012292;28;20088;-69
2021/05/15 06:38:34;;;;;;;1.70;0.65;;;12.60;79.80;;;;;;5014260;28;20030;-69
2021/05/15 06:40:59;;;;;;;3.33;0.60;;;12.60;79.70;;;;;;5013583;28;20101;-69
2021/05/15 06:43:25;;;;;;;19.15;9.27;;;12.60;79.70;;;;;;5013920;28;20378;-69
2021/05/15 06:45:51;;;;;;;11.93;4.97;;;12.60;79.50;;;;;;5013256;28;20030;-69
2021/05/15 06:48:16;;;;;;;1.85;0.95;;;12.60;79.00;;;;;;5032048;28;20029;-69
2021/05/15 06:50:42;;;;;;;1.02;0.65;;;12.60;78.80;;;;;;5032419;28;20036;-69
2021/05/15 06:53:08;;;;;;;1.42;0.73;;;12.60;79.30;;;;;;5015359;28;20064;-69
2021/05/15 06:55:34;;;;;;;1.05;0.30;;;12.70;78.30;;;;;;5015828;28;20466;-69
2021/05/15 06:58:04;;;;;;;1.45;0.47;;;12.60;78.70;;;;;;5033100;28;20026;-69
2021/05/15 07:00:29;;;;;;;3.38;0.40;;;12.60;78.60;;;;;;5015840;28;20037;-69
2021/05/15 07:02:55;;;;;;;3.75;0.40;;;12.60;78.20;;;;;;5015198;28;20026;-70
2021/05/15 07:05:21;;;;;;;0.32;0.30;;;12.60;78.30;;;;;;5033243;28;20037;-69
2021/05/15 07:07:46;;;;;;;0.95;0.22;;;12.70;78.60;;;;;;5033399;28;20462;-69
2021/05/15 07:10:12;;;;;;;1.15;0.43;;;12.70;78.10;;;;;;5015039;28;20034;-69
2021/05/15 07:12:38;;;;;;;0.75;0.30;;;12.80;78.10;;;;;;5015657;28;20378;-69
2021/05/15 07:15:06;;;;;;;0.50;0.30;;;12.90;77.40;;;;;;5014961;28;20026;-69
2021/05/15 07:17:31;;;;;;;0.60;0.28;;;12.90;77.30;;;;;;5033237;28;20112;-69
2021/05/15 07:19:59;;;;;;;0.65;0.30;;;12.90;77.40;;;;;;5032535;28;20419;-69
2021/05/15 07:22:25;;;;;;;2.20;0.40;;;12.80;77.40;;;;;;5015378;28;20056;-69
2021/05/15 07:24:52;;;;;;;0.70;0.45;;;12.80;77.60;;;;;;5033131;28;20033;-69
2021/05/15 07:27:19;;;;;;;1.88;0.30;;;12.90;78.00;;;;;;5032526;28;20021;-69
2021/05/15 07:29:44;;;;;;;0.40;0.40;;;13.00;77.00;;;;;;5015483;28;20032;-69
2021/05/15 07:32:10;;;;;;;1.08;0.68;;;13.10;76.80;;;;;;5032441;28;20029;-69
2021/05/15 07:34:36;;;;;;;0.90;0.40;;;13.30;76.10;;;;;;5032977;28;20059;-69
2021/05/15 07:37:02;;;;;;;1.85;0.40;;;13.30;75.80;;;;;;5014488;28;20412;-69
2021/05/15 07:39:27;;;;;;;2.70;0.30;;;13.40;74.90;;;;;;5031514;28;20030;-69
2021/05/15 07:41:53;;;;;;;0.63;0.45;;;13.50;74.70;;;;;;5032112;28;20389;-69
2021/05/15 07:44:21;;;;;;;0.30;0.20;;;13.50;73.40;;;;;;5014495;28;20038;-69
2021/05/15 07:46:47;;;;;;;1.13;0.30;;;13.50;74.30;;;;;;5011521;28;20072;-70
2021/05/15 07:49:13;;;;;;;1.02;0.40;;;13.50;73.90;;;;;;5012174;28;20084;-69
2021/05/15 07:51:39;;;;;;;0.88;0.30;;;13.50;73.70;;;;;;5013021;28;20415;-69
2021/05/15 07:54:05;;;;;;;1.80;0.32;;;13.50;74.40;;;;;;5012414;28;20541;-69
2021/05/15 07:56:30;;;;;;;1.02;0.40;;;13.50;74.40;;;;;;5012949;28;20030;-69
2021/05/15 07:58:56;;;;;;;0.60;0.40;;;13.40;74.10;;;;;;5011714;28;20053;-69
2021/05/15 08:01:22;;;;;;;0.35;0.30;;;13.40;74.10;;;;;;5010929;28;20502;-69
2021/05/15 08:03:47;;;;;;;0.40;0.30;;;13.50;74.50;;;;;;5011814;28;20096;-69
2021/05/15 08:06:13;;;;;;;1.15;0.40;;;13.50;74.00;;;;;;5010642;28;20030;-69
2021/05/15 08:08:39;;;;;;;0.85;0.40;;;13.50;74.30;;;;;;5011545;28;20068;-69
2021/05/15 08:11:05;;;;;;;0.45;0.40;;;13.50;74.50;;;;;;5010869;28;20029;-69
2021/05/15 08:13:31;;;;;;;0.60;0.40;;;13.50;74.90;;;;;;5011445;28;20026;-68
2021/05/15 08:15:57;;;;;;;0.52;0.35;;;13.50;75.60;;;;;;5011288;28;20052;-69
2021/05/15 08:18:22;;;;;;;0.85;0.40;;;13.60;74.60;;;;;;5011824;28;20038;-69
2021/05/15 08:20:48;;;;;;;0.40;0.30;;;13.80;74.00;;;;;;5011334;28;20486;-69
2021/05/15 08:23:15;;;;;;;1.50;0.38;;;13.80;74.00;;;;;;5012082;28;20053;-69
2021/05/15 08:25:41;;;;;;;0.75;0.50;;;13.90;72.40;;;;;;5027895;28;20032;-69
2021/05/15 08:28:12;;;;;;;0.40;0.30;;;14.00;72.00;;;;;;5012056;28;20375;-69
2021/05/15 08:30:39;;;;;;;1.20;0.20;;;14.00;70.30;;;;;;5011386;28;20026;-69
2021/05/15 08:33:06;;;;;;;1.00;0.30;;;14.10;70.80;;;;;;5010724;28;20463;-69
2021/05/15 08:35:32;;;;;;;2.25;0.38;;;14.00;71.30;;;;;;5011237;28;20030;-69
2021/05/15 08:37:58;;;;;;;1.42;0.40;;;14.10;71.10;;;;;;5011441;28;20030;-69
2021/05/15 08:40:25;;;;;;;2.03;0.47;;;14.10;70.50;;;;;;5011701;28;20390;-69
2021/05/15 08:42:54;;;;;;;0.43;0.20;;;14.20;71.10;;;;;;5012400;28;20029;-69
2021/05/15 08:45:20;;;;;;;1.30;0.40;;;14.20;71.20;;;;;;5010303;28;20034;-69
2021/05/15 08:47:46;;;;;;;0.30;0.28;;;14.30;70.80;;;;;;5028411;28;20046;-70
2021/05/15 08:50:35;;;;;;;0.35;0.28;;;14.30;71.10;;;;;;5013817;28;20124;-69
2021/05/15 08:53:01;;;;;;;0.45;0.40;;;14.30;70.70;;;;;;5016159;28;20108;-69
2021/05/15 08:55:31;;;;;;;0.65;0.40;;;14.20;70.40;;;;;;5035819;28;20121;-69
2021/05/15 08:57:59;;;;;;;1.75;0.50;;;14.30;70.60;;;;;;5018252;28;20053;-69
2021/05/15 09:00:28;;;;;;;3.10;0.55;;;14.30;70.00;;;;;;5017210;28;20037;-69
2021/05/15 09:02:57;;;;;;;1.08;0.40;;;14.30;69.80;;;;;;5017974;28;20025;-69
2021/05/15 09:05:24;;;;;;;0.32;0.30;;;14.40;69.80;;;;;;5017395;28;20482;-69
2021/05/15 09:07:53;;;;;;;1.23;0.30;;;14.50;70.00;;;;;;5035656;28;20025;-69
2021/05/15 09:10:27;;;;;;;0.75;0.40;;;14.50;70.10;;;;;;5033676;28;20029;-70
2021/05/15 09:13:04;;;;;;;4.97;0.55;;;14.60;69.40;;;;;;5035651;28;20103;-69
2021/05/15 09:15:48;;;;;;;1.13;0.38;;;14.70;67.70;;;;;;5017803;28;20379;-69
2021/05/15 09:18:22;;;;;;;2.75;0.50;;;14.70;65.70;;;;;;5017247;28;20033;-69
2021/05/15 09:20:50;;;;;;;0.40;0.40;;;14.80;66.30;;;;;;5017717;28;20029;-69
2021/05/15 09:23:20;;;;;;;1.35;0.30;;;14.80;65.50;;;;;;5017093;28;20536;-69
2021/05/15 09:26:08;;;;;;;1.40;0.50;;;15.00;66.00;;;;;;5035361;28;20033;-69
2021/05/15 09:28:51;;;;;;;1.10;0.40;;;15.10;65.40;;;;;;5035348;28;20025;-69
2021/05/15 09:31:38;;;;;;;0.55;0.50;;;15.10;66.10;;;;;;5016985;28;20096;-69
2021/05/15 09:34:05;;;;;;;0.55;0.32;;;15.20;64.70;;;;;;5035014;28;20032;-72
2021/05/15 09:36:32;;;;;;;1.10;0.50;;;15.30;64.40;;;;;;5035087;28;20471;-69
2021/05/15 09:39:04;;;;;;;1.80;0.40;;;15.30;64.10;;;;;;5017463;28;20462;-69
2021/05/15 09:41:36;;;;;;;;;;;15.30;61.80;;;;;;5018027;28;20113;-69
2021/05/15 09:44:07;;;;;;;2.40;0.60;;;15.40;62.00;;;;;;5017329;28;19927;-69
2021/05/15 09:46:35;;;;;;;4.05;0.40;;;15.40;63.20;;;;;;5034829;28;20452;-69
2021/05/15 09:49:01;;;;;;;1.05;0.30;;;15.50;62.80;;;;;;5017245;28;20033;-69
2021/05/15 09:51:27;;;;;;;1.00;0.30;;;15.60;62.00;;;;;;5034305;28;20025;-69
2021/05/15 09:53:53;;;;;;;1.75;0.40;;;15.60;61.70;;;;;;5017104;28;20030;-69
2021/05/15 09:56:29;;;;;;;1.10;0.57;;;15.60;61.00;;;;;;5016393;28;20064;-69
2021/05/15 09:58:56;;;;;;;1.77;0.40;;;15.60;61.10;;;;;;5034737;28;20037;-69
2021/05/15 10:01:25;;;;;;;0.52;0.20;;;15.70;58.20;;;;;;5034098;28;20064;-69
2021/05/15 10:04:02;;;;;;;0.70;0.30;;;15.80;58.00;;;;;;5016479;28;20378;-69
2021/05/15 10:06:28;;;;;;;0.75;0.50;;;15.90;58.70;;;;;;5034062;28;20115;-69
2021/05/15 10:08:54;;;;;;;0.30;0.25;;;16.00;58.80;;;;;;5033326;28;20162;-69
2021/05/15 10:11:21;;;;;;;0.50;0.30;;;16.00;58.80;;;;;;5016186;28;20022;-70
2021/05/15 10:13:47;;;;;;;1.02;0.30;;;16.00;57.80;;;;;;5016749;28;20057;-70
2021/05/15 10:16:13;;;;;;;1.85;0.60;;;16.00;56.90;;;;;;5033825;28;20091;-70
2021/05/15 10:18:39;;;;;;;1.58;0.38;;;16.00;57.80;;;;;;5016600;28;20112;-70
2021/05/15 10:21:05;;;;;;;2.25;0.50;;;16.00;56.40;;;;;;5016527;28;20044;-70
2021/05/15 10:23:37;;;;;;;0.50;0.30;;;16.10;57.20;;;;;;5015983;28;20439;-70
2021/05/15 10:26:10;;;;;;;1.33;0.40;;;16.20;57.40;;;;;;5034083;28;20041;-70
2021/05/15 10:28:38;;;;;;;1.63;0.40;;;16.30;57.10;;;;;;5016818;28;20038;-70
2021/05/15 10:31:13;;;;;;;0.50;0.20;;;16.30;56.60;;;;;;5034137;28;20025;-70
2021/05/15 10:33:40;;;;;;;2.53;0.40;;;16.40;57.20;;;;;;5034187;28;20485;-70
2021/05/15 10:36:07;;;;;;;0.88;0.25;;;16.50;56.50;;;;;;5015927;28;20040;-70
2021/05/15 10:38:36;;;;;;;0.40;0.28;;;16.50;54.40;;;;;;5033811;28;20025;-69
2021/05/15 10:41:28;;;;;;;0.47;0.35;;;16.40;53.10;;;;;;5034225;28;20022;-69
2021/05/15 10:43:55;;;;;;;;;;;16.40;54.20;;;;;;5012733;28;20080;-70
2021/05/15 10:46:26;;;;;;;0.82;0.30;;;16.50;54.50;;;;;;5032609;28;19917;-70
2021/05/15 10:49:03;;;;;;;2.70;0.50;;;16.50;55.10;;;;;;5033944;28;20466;-70
2021/05/15 10:51:48;;;;;;;0.68;0.28;;;16.50;55.00;;;;;;5015429;28;20035;-70
2021/05/15 10:54:42;;;;;;;1.20;0.43;;;16.30;51.40;;;;;;5033100;28;20026;-70
2021/05/15 10:57:09;;;;;;;1.27;0.30;;;16.20;53.70;;;;;;5015875;28;20391;-70
2021/05/15 10:59:36;;;;;;;2.88;0.38;;;16.20;53.80;;;;;;5015869;28;20087;-70
2021/05/15 11:02:09;;;;;;;2.30;0.30;;;16.20;51.70;;;;;;5033593;28;20481;-70
2021/05/15 11:04:54;;;;;;;2.50;0.40;;;16.20;51.80;;;;;;5016067;28;20033;-70
2021/05/15 11:07:21;;;;;;;0.93;0.25;;;16.20;53.40;;;;;;5032917;28;20037;-70
2021/05/15 11:09:55;;;;;;;1.27;0.30;;;16.20;54.00;;;;;;5033444;28;20056;-70
2021/05/15 11:12:22;;;;;;;1.38;0.40;;;16.30;53.20;;;;;;5015152;28;20022;-70
2021/05/15 11:14:58;;;;;;;2.78;0.30;;;16.20;52.30;;;;;;5014995;28;20066;-70
2021/05/15 11:17:29;;;;;;;2.38;0.35;;;16.20;53.40;;;;;;5014709;28;20033;-70
2021/05/15 11:20:10;;;;;;;2.33;0.28;;;16.20;53.40;;;;;;5015577;28;20033;-70
2021/05/15 11:22:47;;;;;;;2.88;0.40;;;16.30;53.20;;;;;;5033517;28;20434;-70
2021/05/15 11:25:13;;;;;;;1.15;0.30;;;16.30;52.60;;;;;;5032493;28;20076;-70
2021/05/15 11:27:55;;;;;;;4.25;0.50;;;16.30;51.80;;;;;;5033090;28;20029;-70
2021/05/15 11:30:32;;;;;;;0.40;0.20;;;16.30;52.20;;;;;;5014784;28;20470;-70
2021/05/15 11:33:07;;;;;;;4.45;0.40;;;16.30;52.60;;;;;;5015462;28;20026;-70
2021/05/15 11:35:39;;;;;;;1.23;0.60;;;16.30;53.10;;;;;;5032314;28;20033;-70
2021/05/15 11:38:10;;;;;;;1.80;0.70;;;16.40;53.40;;;;;;5032734;28;20079;-70
2021/05/15 11:40:38;;;;;;;1.80;0.35;;;16.40;53.80;;;;;;5015346;28;20463;-70
2021/05/15 11:43:05;;;;;;;0.93;0.40;;;16.40;54.00;;;;;;5031600;28;20065;-70
2021/05/15 11:45:33;;;;;;;0.90;0.35;;;16.40;53.60;;;;;;5032242;28;20045;-70
2021/05/15 11:48:08;;;;;;;2.65;0.43;;;16.40;53.30;;;;;;5014658;28;20064;-70
2021/05/15 11:50:35;;;;;;;0.55;0.30;;;16.30;52.60;;;;;;5032198;28;20025;-70
2021/05/15 11:53:02;;;;;;;2.95;0.40;;;16.40;53.50;;;;;;5014961;28;20104;-70
2021/05/15 11:55:29;;;;;;;1.48;0.40;;;16.60;54.00;;;;;;5014352;28;20124;-70
2021/05/15 11:57:56;;;;;;;1.17;0.40;;;16.80;53.30;;;;;;5014682;28;20029;-70
2021/05/15 12:00:26;;;;;;;0.43;0.20;;;16.80;52.70;;;;;;5014297;28;20049;-70
2021/05/15 12:02:52;;;;;;;2.88;0.30;;;16.80;51.60;;;;;;5014898;28;20466;-70
2021/05/15 12:05:19;;;;;;;1.08;0.32;;;16.90;52.20;;;;;;5014185;28;20032;-71
2021/05/15 12:07:46;;;;;;;1.80;0.40;;;16.90;52.30;;;;;;5032246;28;20026;-70
2021/05/15 12:10:15;;;;;;;2.38;0.50;;;17.10;52.00;;;;;;5014794;28;20029;-70
2021/05/15 12:12:55;;;;;;;0.60;0.45;;;17.30;52.80;;;;;;5015075;28;20052;-70
2021/05/15 12:15:21;;;;;;;1.90;0.38;;;17.50;53.20;;;;;;5031852;28;20049;-70
2021/05/15 12:17:47;;;;;;;1.02;0.22;;;17.60;52.00;;;;;;5014761;28;20137;-70
2021/05/15 12:20:39;;;;;;;3.78;0.70;;;17.70;52.40;;;;;;5014809;28;20526;-70
2021/05/15 12:23:09;;;;;;;0.77;0.30;;;17.30;53.50;;;;;;5014769;28;20474;-70
2021/05/15 12:25:36;;;;;;;1.25;0.35;;;17.30;53.90;;;;;;5031523;28;20095;-70
2021/05/15 12:28:02;;;;;;;1.02;0.38;;;17.30;54.10;;;;;;5035842;28;20458;-70
2021/05/15 12:30:28;;;;;;;1.08;0.47;;;17.20;54.10;;;;;;5035556;28;20474;-70
2021/05/15 12:33:04;;;;;;;1.35;0.40;;;17.20;54.90;;;;;;5018304;28;20060;-70
2021/05/15 12:35:31;;;;;;;2.13;0.40;;;17.10;54.20;;;;;;5034404;28;20064;-70
2021/05/15 12:37:58;;;;;;;1.23;0.40;;;17.00;54.40;;;;;;5036238;28;20029;-70
2021/05/15 12:40:29;;;;;;;2.85;0.40;;;16.80;55.20;;;;;;5035600;28;20041;-70
2021/05/15 12:43:10;;;;;;;0.65;0.40;;;16.70;55.70;;;;;;5018526;28;20029;-70
2021/05/15 12:45:41;;;;;;;2.15;0.50;;;16.60;55.30;;;;;;5034172;28;20386;-69
2021/05/15 12:48:36;;;;;;;2.00;0.30;;;16.50;55.80;;;;;;5017914;28;20045;-70
2021/05/15 12:51:07;;;;;;;1.50;0.60;;;16.40;56.70;;;;;;5018378;28;20378;-70
2021/05/15 12:53:33;;;;;;;2.70;0.65;;;16.30;56.90;;;;;;5017694;28;20025;-70